Ahmadi, Kuwait

6:24 AM AST on July 23, 2014 (GMT +0300)
Kuwait International (OKBK) Elev 180 ft | 29.22 °N, 47.98 °E | Change Station

Current weather conditions updated 24 minutes ago

Clear
Clear
88 °F
Feels Like 88 °F
N
6
Wind Variable Wind from West

Today is forecast to be nearly the same temperature as yesterday.

Today
High -- | Low -- °F
--% Chance of Precip.
Yesterday
High -- | Low -- °F
Precip. -- in
5:02 AM 6:44 PM
Waning Crescent, 13% visible
Pressure 29.53 in
Visibility -9999.0 miles
Clouds
Dew Point 43 °F
Humidity 21%
Rainfall 0.00 in
Snow Depth Not available.
UV Not available.
Pollen Not available.
Air Quality Not available.
Flu Activity Not available.
METAR OKBK 230300Z 26005KT CAVOK 31/06 Q1000 NOSIG

More Conditions Fewer Conditions

Pressure 29.53 in
Visibility -9999.0 miles
Clouds
Dew Point 43 °F
Humidity 21%
Rainfall 0.00 in
Snow Depth Not available.
UV Not available.
Pollen Not available.
Air Quality Not available.
Flu Activity Not available.
METAR OKBK 230300Z 26005KT CAVOK 31/06 Q1000 NOSIG

More Conditions Fewer Conditions

10-Day Weather Forecast

Almanac

Astronomy

Jul. 23, 2014 Rise Set
Actual Time 5:02 AM AST 6:44 PM AST
Civil Twilight 4:36 AM AST 7:10 PM AST
Nautical Twilight 4:05 AM AST 7:42 PM AST
Astronomical Twilight 3:31 AM AST 8:15 PM AST
Moon 2:01 AM AST 3:56 PM AST
Length of Visible Light 14h 34m
Length of Day
13h 42m
Tomorrow will be 1m 5s shorter.
Waning Crescent, 13% of the Moon is Illuminated
Jul 22
Waning Crescent
Jul 26
New
Aug 3
First Quarter
Aug 10
Full
Aug 17
Last Quarter

Yesterday's Extremes

Country Highs Country Lows

Community

WunderPhotos

Upload Photos

1,736,481 photos uploaded!

Nearby

Snow Depth

Not available.

Earthquake Activity

City Distance Mag. Time & Date
No recent earthquake activity has been reported nearby.
Minimum magnitude displayed is 2.5.

Coastal Water Temperatures

Place Temperature
No Stations Reporting

Nearby Weather Stations

Station Location Temp. Heat Index Dew Point Humidity Wind Precip. Elev Updated Type
Julai'a, Kuwait City 94.6 °F 91 °F 43 °F 17% SW  at  5.8 mph 0.00 in / hr 26 ft 6:24 AM AST Rapid Fire
Abdullah Al-Salem Area, Abdullah Alsalem 92.1 °F 92 °F 62 °F 36% WSW  at  5.0 mph 0.00 in / hr 59 ft 6:16 AM AST Normal

Show More Stations Show Fewer Stations